createdAt,value
2023-03-12T00:44:35.388Z,0.4
2023-03-12T00:54:37.339Z,0.4
2023-03-12T01:04:39.669Z,0.5
2023-03-12T01:24:43.906Z,0.7
2023-03-12T01:34:46.183Z,0.7
2023-03-12T01:44:48.754Z,0.7
2023-03-12T02:04:52.876Z,0.8
2023-03-12T02:14:54.761Z,0.9
2023-03-12T02:24:56.654Z,1
2023-03-12T02:34:59.270Z,1.1
2023-03-12T02:45:01.178Z,1.2
2023-03-12T02:55:03.468Z,1.3
2023-03-12T02:55:27.381Z,1.3
2023-03-12T03:05:12.398Z,1.4
2023-03-12T03:15:14.106Z,1.4
2023-03-12T03:35:18.190Z,1.1
2023-03-12T03:45:20.087Z,1
2023-03-12T03:55:22.318Z,1
2023-03-12T04:15:26.301Z,1
2023-03-12T04:25:27.961Z,1.1
2023-03-12T04:35:30.427Z,1.2
2023-03-12T04:45:32.670Z,1.2
2023-03-12T04:55:34.491Z,1.2
2023-03-12T05:05:36.306Z,1.5
2023-03-12T05:15:38.240Z,1.6
2023-03-12T05:25:40.385Z,1.8
2023-03-12T05:35:42.712Z,1.8
2023-03-12T05:55:47.528Z,1.9
2023-03-12T06:05:49.249Z,2.2
2023-03-12T06:15:51.422Z,2.7
2023-03-12T06:25:53.777Z,2.8
2023-03-12T06:35:56.119Z,2.8
2023-03-12T06:45:58.223Z,2.9
2023-03-12T07:06:02.498Z,3.4
2023-03-12T07:16:05.047Z,3.4
2023-03-12T07:26:07.358Z,3.4
2023-03-12T07:36:09.558Z,3.2
2023-03-12T07:46:11.636Z,2.9
2023-03-12T07:56:13.408Z,2.9
2023-03-12T08:06:15.347Z,3
2023-03-12T08:16:17.120Z,3.1
2023-03-12T08:26:19.122Z,3.4
2023-03-12T08:36:22.441Z,3.6
2023-03-12T08:46:22.520Z,3.9
2023-03-12T08:56:24.473Z,4
2023-03-12T09:06:27.057Z,4.1
2023-03-12T09:16:29.382Z,4.3
2023-03-12T09:26:31.124Z,4.6
2023-03-12T09:36:33.476Z,4.9
2023-03-12T10:06:39.180Z,5
2023-03-12T10:16:40.974Z,5
2023-03-12T10:26:42.650Z,5
2023-03-12T10:36:44.800Z,5.2
2023-03-12T10:46:47.386Z,5.5
2023-03-12T10:56:49.583Z,5.6
2023-03-12T11:06:51.331Z,5.7
2023-03-12T11:16:53.856Z,5.8
2023-03-12T11:26:56.246Z,6
2023-03-12T11:36:58.723Z,6.3
2023-03-12T11:47:01.255Z,6.4
2023-03-12T11:57:03.886Z,6.6
2023-03-12T12:07:06.235Z,6.8
2023-03-12T12:17:08.804Z,7.1
2023-03-12T12:27:11.167Z,7.3
2023-03-12T12:47:15.053Z,7.9
2023-03-12T12:57:17.173Z,8.3
2023-03-12T13:07:19.174Z,8.7
2023-03-12T13:17:21.093Z,8.8
2023-03-12T13:27:23.637Z,9.1
2023-03-12T13:37:26.223Z,9.4
2023-03-12T13:47:28.565Z,9.9
2023-03-12T13:57:30.474Z,10.1
2023-03-12T14:07:32.645Z,10.3
2023-03-12T14:17:34.924Z,10.5
2023-03-12T14:27:37.389Z,10.7
2023-03-12T14:37:39.759Z,10.8
2023-03-12T14:47:41.998Z,10.8
2023-03-12T14:57:44.265Z,10.9
2023-03-12T15:07:46.861Z,10.9
2023-03-12T15:17:48.689Z,11
2023-03-12T15:37:52.273Z,11.1
2023-03-12T15:47:54.374Z,11.2
2023-03-12T15:57:56.989Z,11.2
2023-03-12T16:07:59.499Z,11.2
2023-03-12T16:18:01.866Z,11.2
2023-03-12T16:28:04.441Z,11.2
2023-03-12T16:38:06.231Z,11.2
2023-03-12T16:48:08.056Z,11.2
2023-03-12T16:58:10.366Z,11.1
2023-03-12T17:08:12.351Z,11.1
2023-03-12T17:18:14.183Z,11.1
2023-03-12T17:28:16.688Z,11.1
2023-03-12T17:38:18.570Z,11
2023-03-12T17:48:20.887Z,10.9
2023-03-12T17:58:22.962Z,10.9
2023-03-12T18:08:25.212Z,10.8
2023-03-12T18:18:27.297Z,10.7
2023-03-12T18:28:29.696Z,10.8
2023-03-12T18:38:32.073Z,10.7
2023-03-12T18:48:34.425Z,10.6
2023-03-12T18:58:36.507Z,10.6
2023-03-12T19:08:39.096Z,10.6
2023-03-12T19:18:41.482Z,10.5
2023-03-12T19:28:43.401Z,10.4
2023-03-12T19:38:46.035Z,10.4
2023-03-12T19:48:48.395Z,10.4
2023-03-12T19:58:50.608Z,10.5
2023-03-12T20:08:53.080Z,10.5
2023-03-12T20:18:54.716Z,10.6
2023-03-12T20:28:56.836Z,10.5
2023-03-12T20:38:59.444Z,10.5
2023-03-12T20:49:01.448Z,10.4
2023-03-12T20:59:03.502Z,10.4
2023-03-12T21:09:05.816Z,10.4
2023-03-12T21:19:08.122Z,10.3
2023-03-12T21:29:10.801Z,10.3
2023-03-12T21:39:13.307Z,10.4
2023-03-12T21:49:15.395Z,10.4
2023-03-12T21:59:17.756Z,10.1
2023-03-12T22:09:19.676Z,10
2023-03-12T22:19:21.978Z,10.2
2023-03-12T22:29:23.763Z,10.2
2023-03-12T22:39:26.204Z,10.1
2023-03-12T22:49:28.053Z,10.1
2023-03-12T22:59:30.284Z,10.2
2023-03-12T23:09:32.121Z,10.3
2023-03-12T23:19:33.817Z,10.4
2023-03-12T23:29:35.627Z,10.4
2023-03-12T23:39:51.983Z,10.4
2023-03-12T23:49:39.522Z,10.3
2023-03-12T23:59:41.743Z,10.4
